Time;durP1;ratioP1;P1;durP2;ratioP2;P2;SDS_P1;SDS_P2;PMS_P1;PMS_P2;Temp;Humidity;BMP_temperature;BMP_pressure;BME280_temperature;BME280_humidity;BME280_pressure;Samples;Min_cycle;Max_cycle;Signal;HPM_P1;HPM_P2
2022/02/27 00:00:31;;;;;;;62.80;33.30;;;;;;;0.78;76.27;102399.77;88799;1285;93837;-78
2022/02/27 00:02:49;;;;;;;67.90;35.50;;;;;;;0.80;76.53;102402.18;88806;1284;76721;-78
2022/02/27 00:04:55;;;;;;;71.60;36.00;;;;;;;0.81;76.44;102400.52;88806;1285;81941;-78
2022/02/27 00:07:01;;;;;;;63.30;35.20;;;;;;;0.79;76.37;102407.02;88815;1285;99808;-77
2022/02/27 00:09:10;;;;;;;64.90;34.30;;;;;;;0.79;76.35;102407.89;88532;1288;90715;-78
2022/02/27 00:11:19;;;;;;;65.80;34.30;;;;;;;0.77;76.33;102411.55;88776;1284;96098;-64
2022/02/27 00:13:28;;;;;;;61.50;32.40;;;;;;;0.74;76.32;102411.17;88768;1286;80552;-64
2022/02/27 00:15:34;;;;;;;63.00;34.70;;;;;;;0.73;76.43;102412.83;88791;1286;80349;-64
2022/02/27 00:17:41;;;;;;;60.70;32.60;;;;;;;0.76;76.42;102414.63;88784;1285;100586;-65
2022/02/27 00:19:50;;;;;;;60.60;31.60;;;;;;;0.80;76.45;102416.20;88804;1286;87836;-64
2022/02/27 00:21:56;;;;;;;57.70;31.40;;;;;;;0.80;76.43;102422.94;88804;1285;93955;-65
2022/02/27 00:24:02;;;;;;;55.00;31.80;;;;;;;0.79;76.70;102425.45;88716;1284;80678;-64
2022/02/27 00:26:10;;;;;;;52.70;29.80;;;;;;;0.80;76.78;102424.32;88789;1283;82559;-65
2022/02/27 00:28:19;;;;;;;56.80;30.80;;;;;;;0.84;76.68;102429.09;88805;1285;99412;-65
2022/02/27 00:30:30;;;;;;;55.30;30.20;;;;;;;0.87;76.78;102431.45;88810;1285;86901;-77
2022/02/27 00:32:40;;;;;;;55.40;29.60;;;;;;;0.86;76.77;102429.02;88822;1285;94087;-79
2022/02/27 00:34:49;;;;;;;53.90;29.30;;;;;;;0.86;76.78;102423.66;88807;1284;81746;-79
2022/02/27 00:36:58;;;;;;;55.70;31.00;;;;;;;0.88;76.88;102427.14;88812;1284;81754;-64
2022/02/27 00:39:08;;;;;;;56.30;28.30;;;;;;;0.91;76.62;102426.98;88810;1285;99114;-65
2022/02/27 00:41:17;;;;;;;55.60;28.70;;;;;;;0.91;76.61;102427.85;88652;1287;87823;-65
2022/02/27 00:43:26;;;;;;;52.60;28.00;;;;;;;0.87;76.77;102426.45;88799;1285;94296;-65
2022/02/27 00:45:36;;;;;;;54.90;28.90;;;;;;;0.86;76.83;102425.64;88806;1285;80672;-65
2022/02/27 00:47:45;;;;;;;77.20;36.90;;;;;;;0.86;76.76;102421.03;88677;1287;81383;-64
2022/02/27 00:49:55;;;;;;;54.80;30.70;;;;;;;0.88;76.84;102424.50;88808;1285;99807;-65
2022/02/27 00:52:01;;;;;;;67.00;35.10;;;;;;;0.90;76.92;102424.02;88810;1285;86169;-64
2022/02/27 00:54:10;;;;;;;64.10;34.30;;;;;;;0.91;76.92;102428.92;88639;1287;95912;-64
2022/02/27 00:56:16;;;;;;;55.40;30.90;;;;;;;0.94;76.77;102430.20;88822;1286;77562;-77
2022/02/27 00:58:22;;;;;;;75.20;35.20;;;;;;;0.94;76.84;102428.41;88854;1286;83040;-77
2022/02/27 01:00:27;;;;;;;57.90;30.30;;;;;;;0.94;76.82;102429.11;88818;1284;100003;-77
2022/02/27 01:02:36;;;;;;;57.40;28.70;;;;;;;0.92;77.01;102427.98;88826;1285;88698;-77
2022/02/27 01:04:45;;;;;;;55.10;29.30;;;;;;;0.93;76.97;102431.84;88832;1285;93529;-78
2022/02/27 01:06:54;;;;;;;56.30;27.50;;;;;;;0.93;77.00;102433.63;88810;1285;80721;-78
2022/02/27 01:08:59;;;;;;;54.20;31.10;;;;;;;0.93;77.03;102436.27;88816;1285;81148;-77
2022/02/27 01:11:05;;;;;;;55.50;28.30;;;;;;;0.95;77.12;102434.73;88819;1286;99446;-65
2022/02/27 01:13:11;;;;;;;56.80;29.50;;;;;;;0.97;77.09;102435.01;88813;1285;89262;-65
2022/02/27 01:15:19;;;;;;;50.30;26.40;;;;;;;0.99;77.23;102434.17;88805;1285;95732;-78
2022/02/27 01:17:25;;;;;;;49.00;26.70;;;;;;;0.99;77.33;102428.83;88806;1284;78571;-78
2022/02/27 01:19:30;;;;;;;52.30;26.40;;;;;;;1.03;77.23;102431.67;88821;1284;82881;-78
2022/02/27 01:21:38;;;;;;;49.00;26.60;;;;;;;1.05;77.34;102430.52;88827;1284;100809;-65
2022/02/27 01:23:43;;;;;;;46.80;23.00;;;;;;;1.06;77.28;102422.81;88811;1285;89665;-65
2022/02/27 01:25:49;;;;;;;47.10;21.80;;;;;;;1.05;77.35;102419.29;88811;1285;95630;-64
2022/02/27 01:27:55;;;;;;;30.90;17.00;;;;;;;1.06;77.30;102420.34;88809;1285;80285;-65
2022/02/27 01:30:00;;;;;;;29.10;14.90;;;;;;;1.07;77.39;102415.45;88816;1286;82407;-77
2022/02/27 01:32:08;;;;;;;34.00;17.70;;;;;;;1.07;77.42;102419.17;88838;1284;99218;-79
2022/02/27 01:34:14;;;;;;;54.90;27.70;;;;;;;1.09;77.51;102415.17;88835;1284;87622;-79
2022/02/27 01:36:20;;;;;;;41.80;20.10;;;;;;;1.10;77.51;102408.73;88724;1286;92035;-78
2022/02/27 01:38:25;;;;;;;36.60;19.10;;;;;;;1.06;77.56;102410.20;88809;1285;79917;-77
2022/02/27 01:40:31;;;;;;;48.40;23.60;;;;;;;1.02;77.55;102413.08;88838;1285;81084;-77
2022/02/27 01:42:36;;;;;;;42.20;21.90;;;;;;;0.99;77.46;102404.39;88809;1285;100578;-77
2022/02/27 01:44:43;;;;;;;40.10;20.80;;;;;;;0.98;77.42;102409.75;88847;1285;87393;-78
2022/02/27 01:47:01;;;;;;;28.60;16.30;;;;;;;0.90;77.44;102416.52;88849;1284;94310;-77
2022/02/27 01:49:07;;;;;;;32.10;16.90;;;;;;;0.84;77.54;102419.02;88725;1285;78761;-77
2022/02/27 01:51:13;;;;;;;31.00;17.10;;;;;;;0.80;77.59;102418.11;88747;1284;82396;-65
2022/02/27 01:53:19;;;;;;;30.50;16.60;;;;;;;0.79;77.62;102421.56;88755;1285;100908;-65
2022/02/27 01:55:25;;;;;;;26.40;14.30;;;;;;;0.77;77.38;102419.15;88728;1285;88873;-65
2022/02/27 01:57:33;;;;;;;21.20;12.70;;;;;;;0.76;77.44;102419.79;88717;1285;93640;-64
2022/02/27 01:59:39;;;;;;;21.90;12.00;;;;;;;0.72;77.50;102417.84;88727;1285;81547;-65
2022/02/27 02:01:48;;;;;;;21.50;11.50;;;;;;;0.67;77.55;102418.27;88747;1285;83964;-66
2022/02/27 02:03:54;;;;;;;18.30;10.70;;;;;;;0.60;77.64;102417.52;88740;1285;100129;-65
2022/02/27 02:05:59;;;;;;;20.30;11.50;;;;;;;0.56;77.71;102414.88;88724;1284;89248;-65
2022/02/27 02:08:06;;;;;;;18.40;10.30;;;;;;;0.52;77.70;102414.23;88734;1284;94586;-65
2022/02/27 02:10:12;;;;;;;15.80;9.40;;;;;;;0.47;77.68;102411.81;88704;1285;77067;-65
2022/02/27 02:12:18;;;;;;;18.50;10.50;;;;;;;0.39;77.78;102415.56;88733;1285;82861;-66
2022/02/27 02:14:23;;;;;;;19.00;9.20;;;;;;;0.33;77.61;102419.80;88733;1285;100384;-65
2022/02/27 02:16:44;;;;;;;17.40;9.40;;;;;;;0.27;77.91;102422.22;88722;1285;88935;-77
2022/02/27 02:18:51;;;;;;;18.70;9.20;;;;;;;0.19;77.88;102421.89;88729;1285;94968;-78
2022/02/27 02:20:56;;;;;;;18.00;8.90;;;;;;;0.10;77.98;102425.84;88632;1286;80103;-77
2022/02/27 02:23:04;;;;;;;17.40;7.90;;;;;;;0.04;78.02;102417.48;88761;1285;82059;-77
2022/02/27 02:25:10;;;;;;;14.80;7.70;;;;;;;-0.02;78.03;102418.46;88754;1285;101165;-66
2022/02/27 02:27:19;;;;;;;14.60;8.70;;;;;;;-0.03;78.19;102418.48;88735;1285;87749;-65
2022/02/27 02:29:25;;;;;;;17.70;9.60;;;;;;;-0.03;78.31;102418.88;88747;1285;93457;-65
2022/02/27 02:31:33;;;;;;;14.20;8.00;;;;;;;-0.06;78.38;102417.09;88755;1284;79197;-77
2022/02/27 02:33:39;;;;;;;14.20;8.30;;;;;;;-0.10;78.31;102414.93;88746;1284;80932;-77
2022/02/27 02:35:45;;;;;;;19.10;8.60;;;;;;;-0.12;78.24;102420.70;88737;1284;100399;-77
2022/02/27 02:37:51;;;;;;;14.10;8.50;;;;;;;-0.14;78.35;102417.08;88739;1285;87536;-77
2022/02/27 02:39:57;;;;;;;16.50;8.20;;;;;;;-0.16;78.25;102418.41;88733;1284;95828;-77
2022/02/27 02:42:06;;;;;;;17.40;8.40;;;;;;;-0.18;78.32;102416.91;88729;1285;79349;-78
2022/02/27 02:44:13;;;;;;;14.20;8.00;;;;;;;-0.17;78.49;102418.31;88750;1285;80972;-77
2022/02/27 02:46:22;;;;;;;15.80;8.40;;;;;;;-0.18;78.35;102423.81;88727;1284;100744;-65
2022/02/27 02:48:27;;;;;;;15.20;8.20;;;;;;;-0.19;78.34;102424.09;88757;1285;89623;-65
2022/02/27 02:50:33;;;;;;;11.80;7.60;;;;;;;-0.22;78.34;102430.58;88739;1285;95164;-76
2022/02/27 02:52:38;;;;;;;14.00;8.00;;;;;;;-0.26;78.26;102424.76;88730;1285;77898;-77
2022/02/27 02:54:44;;;;;;;13.50;7.90;;;;;;;-0.30;78.37;102429.91;88726;1285;82768;-77
2022/02/27 02:56:49;;;;;;;12.30;7.50;;;;;;;-0.34;78.31;102433.09;88760;1285;99870;-66
2022/02/27 02:58:55;;;;;;;16.50;8.30;;;;;;;-0.38;78.63;102440.89;88741;1283;88630;-65
2022/02/27 03:01:01;;;;;;;14.90;8.00;;;;;;;-0.41;78.56;102441.39;88741;1284;93782;-65
2022/02/27 03:03:07;;;;;;;13.70;9.00;;;;;;;-0.47;78.55;102446.05;88746;1285;77344;-65
2022/02/27 03:05:13;;;;;;;18.20;7.70;;;;;;;-0.53;78.53;102449.89;88757;1285;80383;-77
2022/02/27 03:07:18;;;;;;;14.40;7.90;;;;;;;-0.54;78.78;102450.64;88537;1287;99917;-77
2022/02/27 03:09:27;;;;;;;13.10;7.30;;;;;;;-0.52;78.68;102446.66;88641;1287;89205;-78
2022/02/27 03:11:33;;;;;;;14.50;7.00;;;;;;;-0.48;79.06;102448.77;88639;1287;95563;-77
2022/02/27 03:13:39;;;;;;;13.70;7.00;;;;;;;-0.46;79.06;102449.22;88619;1287;79455;-78
2022/02/27 03:15:45;;;;;;;11.80;6.50;;;;;;;-0.42;79.24;102452.04;88759;1285;83680;-65
2022/02/27 03:17:50;;;;;;;15.20;7.90;;;;;;;-0.34;79.18;102453.42;88756;1285;101042;-65
2022/02/27 03:19:56;;;;;;;12.90;6.40;;;;;;;-0.26;78.97;102451.48;88744;1285;88901;-64
2022/02/27 03:22:01;;;;;;;9.80;6.60;;;;;;;-0.19;79.33;102452.21;88745;1285;95768;-64
2022/02/27 03:24:08;;;;;;;11.80;6.40;;;;;;;-0.09;79.42;102460.44;88761;1285;78549;-66
2022/02/27 03:26:13;;;;;;;10.50;5.90;;;;;;;-0.00;79.57;102463.55;88766;1285;83011;-77
2022/02/27 03:28:22;;;;;;;10.30;6.20;;;;;;;0.05;79.49;102463.30;88785;1285;99806;-77
2022/02/27 03:30:34;;;;;;;14.60;6.20;;;;;;;0.11;79.68;102468.16;88804;1285;89885;-76
2022/02/27 03:32:44;;;;;;;13.40;6.40;;;;;;;0.15;79.67;102470.45;88764;1285;94271;-76
2022/02/27 03:34:49;;;;;;;11.50;6.10;;;;;;;0.20;79.74;102473.25;88782;1285;78876;-76
2022/02/27 03:36:55;;;;;;;11.10;5.60;;;;;;;0.24;79.70;102475.14;88212;1285;762067;-77
2022/02/27 03:39:01;;;;;;;13.20;6.00;;;;;;;0.31;79.66;102476.59;88692;1285;99069;-77
2022/02/27 03:41:07;;;;;;;12.60;6.00;;;;;;;0.34;79.66;102475.17;88775;1285;89446;-77
2022/02/27 03:43:13;;;;;;;14.00;5.50;;;;;;;0.39;79.63;102474.08;88745;1285;94025;-78
2022/02/27 03:45:19;;;;;;;12.40;5.90;;;;;;;0.44;79.67;102476.81;88757;1283;80157;-65
2022/02/27 03:47:24;;;;;;;16.60;6.60;;;;;;;0.52;79.86;102473.27;88785;1284;82805;-68
2022/02/27 03:49:33;;;;;;;12.10;6.20;;;;;;;0.57;79.64;102469.96;88746;1285;98191;-65
2022/02/27 03:51:38;;;;;;;10.60;6.10;;;;;;;0.59;79.86;102473.63;88776;1285;87676;-65
2022/02/27 03:53:44;;;;;;;13.90;7.00;;;;;;;0.64;79.91;102470.39;88597;1286;95111;-65
2022/02/27 03:55:49;;;;;;;11.50;7.40;;;;;;;0.68;79.75;102473.71;88757;1285;80654;-77
2022/02/27 03:57:58;;;;;;;13.80;7.30;;;;;;;0.70;79.89;102477.33;88780;1284;84390;-78
2022/02/27 04:00:09;;;;;;;12.30;7.00;;;;;;;0.73;79.95;102478.80;88747;1285;99168;-75
2022/02/27 04:02:17;;;;;;;14.40;7.10;;;;;;;0.76;79.91;102479.88;88756;1285;87392;-77
2022/02/27 04:04:23;;;;;;;16.10;7.10;;;;;;;0.80;79.90;102481.64;88767;1283;94837;-77
2022/02/27 04:06:29;;;;;;;15.60;7.80;;;;;;;0.83;79.97;102486.27;88771;1285;78529;-75
2022/02/27 04:08:35;;;;;;;13.40;7.80;;;;;;;0.86;79.79;102482.00;88758;1285;81412;-76
2022/02/27 04:10:41;;;;;;;14.30;7.30;;;;;;;0.89;79.96;102478.50;88788;1283;99636;-77
2022/02/27 04:12:50;;;;;;;17.50;7.80;;;;;;;0.89;79.97;102478.55;88802;1285;87272;-77
2022/02/27 04:14:56;;;;;;;11.90;7.00;;;;;;;0.90;79.99;102478.97;88761;1285;95598;-78
2022/02/27 04:17:03;;;;;;;14.10;8.30;;;;;;;0.88;79.97;102478.40;88751;1285;79799;-77
2022/02/27 04:19:09;;;;;;;15.70;8.10;;;;;;;0.87;79.95;102476.48;88785;1285;81064;-79
2022/02/27 04:21:17;;;;;;;15.90;7.80;;;;;;;0.89;80.01;102473.03;88753;1284;101445;-65
2022/02/27 04:23:23;;;;;;;14.80;8.20;;;;;;;0.89;79.95;102474.08;88752;1285;87569;-65
2022/02/27 04:25:32;;;;;;;13.30;8.00;;;;;;;0.90;79.97;102472.79;88765;1285;95224;-65
2022/02/27 04:27:37;;;;;;;16.00;7.70;;;;;;;0.90;80.01;102473.81;88750;1285;81342;-65
2022/02/27 04:29:45;;;;;;;17.70;8.90;;;;;;;0.90;80.06;102471.02;88770;1285;83235;-65
2022/02/27 04:31:53;;;;;;;15.90;7.90;;;;;;;0.90;80.06;102470.12;88774;1285;99017;-79
2022/02/27 04:33:59;;;;;;;16.30;8.10;;;;;;;0.95;79.98;102470.61;88746;1284;89482;-78
2022/02/27 04:36:05;;;;;;;12.70;7.50;;;;;;;0.92;80.10;102471.46;88772;1284;94462;-76
2022/02/27 04:38:10;;;;;;;14.80;8.60;;;;;;;0.93;80.15;102474.77;88765;1285;80779;-80
2022/02/27 04:40:19;;;;;;;13.90;8.60;;;;;;;0.92;80.15;102474.80;88796;1285;81255;-81
2022/02/27 04:42:27;;;;;;;16.60;8.70;;;;;;;0.95;80.16;102473.24;88771;1285;100458;-81
2022/02/27 04:44:36;;;;;;;14.30;8.40;;;;;;;0.99;80.00;102472.33;88770;1285;89184;-80
2022/02/27 04:46:42;;;;;;;13.40;8.40;;;;;;;0.97;79.99;102470.30;88753;1285;96351;-66
2022/02/27 04:48:48;;;;;;;15.60;8.60;;;;;;;0.99;80.10;102470.88;88769;1285;78768;-66
2022/02/27 04:50:56;;;;;;;14.00;8.00;;;;;;;0.97;80.34;102470.67;88759;1285;83478;-79
2022/02/27 04:53:05;;;;;;;15.80;8.70;;;;;;;0.94;80.18;102473.80;88788;1285;100451;-79
2022/02/27 04:55:13;;;;;;;16.10;8.00;;;;;;;0.94;80.16;102473.27;88786;1285;88948;-79
2022/02/27 04:57:22;;;;;;;14.10;8.00;;;;;;;1.00;79.99;102473.32;88762;1285;95668;-79
2022/02/27 04:59:27;;;;;;;15.10;8.50;;;;;;;1.03;80.07;102477.59;88759;1284;77870;-80
2022/02/27 05:01:33;;;;;;;15.30;8.40;;;;;;;0.98;80.22;102482.85;88814;1285;81244;-67
2022/02/27 05:03:39;;;;;;;17.90;9.20;;;;;;;0.94;80.39;102483.08;88797;1285;100818;-66
2022/02/27 05:05:44;;;;;;;15.30;9.10;;;;;;;0.89;80.33;102490.23;88791;1285;87716;-78
2022/02/27 05:07:50;;;;;;;13.40;8.10;;;;;;;0.86;80.27;102492.66;88781;1285;93886;-76
2022/02/27 05:10:00;;;;;;;16.00;9.10;;;;;;;0.84;80.18;102497.39;88792;1285;79462;-76
2022/02/27 05:12:07;;;;;;;11.70;7.80;;;;;;;0.82;80.16;102498.21;88769;1285;83849;-67
2022/02/27 05:14:16;;;;;;;15.40;8.20;;;;;;;0.82;80.20;102504.42;88781;1285;100781;-66
2022/02/27 05:16:25;;;;;;;12.70;8.50;;;;;;;0.78;80.36;102505.87;88766;1284;88154;-64
2022/02/27 05:18:31;;;;;;;16.00;8.80;;;;;;;0.72;80.53;102509.19;88755;1285;94254;-64
2022/02/27 05:20:36;;;;;;;13.20;8.10;;;;;;;0.72;80.55;102510.92;88744;1285;81923;-78
2022/02/27 05:22:46;;;;;;;16.60;9.20;;;;;;;0.72;80.48;102514.82;88787;1285;83814;-78
2022/02/27 05:24:52;;;;;;;13.30;8.20;;;;;;;0.75;80.51;102517.17;88775;1285;99519;-78
2022/02/27 05:27:01;;;;;;;15.50;8.00;;;;;;;0.78;80.64;102521.48;88760;1285;88484;-64
2022/02/27 05:29:07;;;;;;;11.40;6.70;;;;;;;0.80;80.62;102522.96;88605;1287;96012;-65
2022/02/27 05:31:12;;;;;;;12.10;6.70;;;;;;;0.80;80.54;102521.52;88767;1285;78488;-78
2022/02/27 05:33:18;;;;;;;11.80;7.60;;;;;;;0.81;80.64;102526.61;88765;1285;82532;-78
2022/02/27 05:35:23;;;;;;;12.30;7.80;;;;;;;0.79;80.63;102524.75;88779;1285;101176;-78
2022/02/27 05:37:29;;;;;;;14.50;7.40;;;;;;;0.80;80.70;102521.38;88793;1285;87394;-78
2022/02/27 05:39:38;;;;;;;15.60;9.30;;;;;;;0.79;80.64;102521.03;88792;1285;94063;-79
2022/02/27 05:41:43;;;;;;;14.30;7.60;;;;;;;0.88;80.60;102521.84;88773;1285;78828;-65
2022/02/27 05:43:52;;;;;;;14.10;8.90;;;;;;;0.93;80.61;102517.30;88796;1285;80878;-65
2022/02/27 05:45:58;;;;;;;11.40;6.80;;;;;;;0.97;80.56;102520.33;88790;1285;100239;-78
2022/02/27 05:48:04;;;;;;;13.40;7.10;;;;;;;0.94;80.66;102517.28;88777;1285;87466;-78
2022/02/27 05:50:11;;;;;;;14.10;7.70;;;;;;;1.01;80.44;102519.43;88797;1285;93617;-65
2022/02/27 05:52:17;;;;;;;12.00;6.80;;;;;;;1.02;80.44;102518.98;88791;1285;80751;-65
2022/02/27 05:54:23;;;;;;;15.90;9.60;;;;;;;1.04;80.42;102522.63;88779;1285;79692;-65
2022/02/27 05:56:28;;;;;;;13.00;7.00;;;;;;;0.99;80.48;102523.41;88636;1286;100992;-65
2022/02/27 05:58:35;;;;;;;15.20;8.20;;;;;;;1.01;80.31;102521.88;88792;1284;87932;-65
2022/02/27 06:00:43;;;;;;;13.10;8.10;;;;;;;1.06;80.22;102524.69;88776;1285;94158;-65
2022/02/27 06:02:48;;;;;;;13.40;7.30;;;;;;;1.12;80.25;102527.88;88775;1285;79706;-65
2022/02/27 06:04:54;;;;;;;15.30;8.20;;;;;;;1.15;80.18;102528.12;88812;1285;82953;-65
2022/02/27 06:07:00;;;;;;;12.60;7.50;;;;;;;1.14;80.22;102530.98;88785;1285;99922;-65
2022/02/27 06:09:06;;;;;;;11.20;7.50;;;;;;;1.12;80.16;102533.56;88807;1285;88182;-65
2022/02/27 06:11:14;;;;;;;11.40;7.70;;;;;;;1.06;80.22;102533.00;88803;1285;93997;-78
2022/02/27 06:13:23;;;;;;;13.40;8.20;;;;;;;1.02;80.30;102536.23;88789;1285;77356;-78
2022/02/27 06:15:32;;;;;;;12.40;7.70;;;;;;;0.97;80.35;102539.81;88771;1285;82351;-78
2022/02/27 06:17:40;;;;;;;15.90;8.20;;;;;;;0.92;80.33;102536.36;88788;1285;98929;-78
2022/02/27 06:19:46;;;;;;;15.60;8.80;;;;;;;0.88;80.33;102537.23;88757;1284;90159;-79
2022/02/27 06:21:51;;;;;;;25.60;15.50;;;;;;;0.90;80.40;102540.70;88752;1285;93275;-65
2022/02/27 06:23:57;;;;;;;25.00;14.20;;;;;;;0.95;80.39;102539.95;88757;1284;78275;-64
2022/02/27 06:26:02;;;;;;;19.80;10.50;;;;;;;0.97;80.43;102544.64;88782;1284;83384;-77
2022/02/27 06:28:08;;;;;;;11.80;7.60;;;;;;;0.92;80.52;102542.91;88757;1285;97515;-77
2022/02/27 06:30:18;;;;;;;13.40;8.30;;;;;;;0.87;80.68;102546.88;88786;1285;86655;-77
2022/02/27 06:32:27;;;;;;;14.10;8.20;;;;;;;0.90;80.66;102548.87;88781;1284;95880;-77
2022/02/27 06:34:32;;;;;;;12.30;7.40;;;;;;;0.91;80.78;102553.80;88764;1285;79942;-78
2022/02/27 06:36:38;;;;;;;11.30;7.50;;;;;;;0.87;80.48;102553.98;88816;1284;80579;-77
2022/02/27 06:38:47;;;;;;;14.10;7.90;;;;;;;0.89;80.38;102557.27;88813;1285;100405;-78
2022/02/27 06:40:53;;;;;;;11.90;9.20;;;;;;;0.94;80.43;102562.17;88814;1285;88461;-78
2022/02/27 06:43:05;;;;;;;15.30;11.00;;;;;;;0.95;80.62;102565.30;88785;1285;95514;-78
2022/02/27 06:45:12;;;;;;;12.40;8.40;;;;;;;0.95;80.63;102562.65;88778;1285;81112;-65
2022/02/27 06:47:20;;;;;;;12.40;7.70;;;;;;;1.00;80.60;102564.50;88812;1285;80444;-65
2022/02/27 06:49:26;;;;;;;15.00;9.10;;;;;;;1.08;80.55;102562.52;88769;1285;100764;-65
2022/02/27 06:51:31;;;;;;;13.40;8.00;;;;;;;1.11;80.50;102562.55;88806;1285;88384;-78
2022/02/27 06:53:37;;;;;;;13.80;7.20;;;;;;;1.15;80.62;102565.74;88804;1284;93268;-77
2022/02/27 06:55:42;;;;;;;13.20;7.90;;;;;;;1.19;80.65;102567.13;88794;1285;79335;-78
2022/02/27 06:57:50;;;;;;;13.90;7.90;;;;;;;1.22;80.54;102569.83;88802;1284;83269;-78
2022/02/27 06:59:56;;;;;;;13.60;9.20;;;;;;;1.28;80.62;102564.73;88815;1285;100568;-78
2022/02/27 07:02:05;;;;;;;15.80;9.50;;;;;;;1.27;80.73;102566.70;88787;1283;87058;-66
2022/02/27 07:04:10;;;;;;;15.60;9.10;;;;;;;1.30;80.69;102566.94;88790;1285;95440;-65
2022/02/27 07:06:19;;;;;;;17.50;10.10;;;;;;;1.29;80.56;102568.91;88798;1284;78504;-78
2022/02/27 07:08:28;;;;;;;13.90;10.20;;;;;;;1.30;80.51;102575.27;88807;1285;81790;-78
2022/02/27 07:10:34;;;;;;;14.10;9.80;;;;;;;1.29;80.55;102574.63;88804;1285;99166;-65
2022/02/27 07:12:40;;;;;;;18.40;9.10;;;;;;;1.28;80.63;102571.48;88808;1285;88050;-66
2022/02/27 07:14:46;;;;;;;14.40;8.50;;;;;;;1.28;80.61;102574.83;88802;1285;94631;-65
2022/02/27 07:16:51;;;;;;;10.70;7.80;;;;;;;1.34;80.51;102577.00;88799;1285;79901;-65
2022/02/27 07:18:57;;;;;;;13.20;8.60;;;;;;;1.36;80.41;102575.66;88808;1285;81832;-65
2022/02/27 07:21:03;;;;;;;15.60;8.60;;;;;;;1.37;80.44;102578.13;88830;1285;98814;-78
2022/02/27 07:23:08;;;;;;;15.70;9.00;;;;;;;1.44;80.39;102585.21;88638;1287;88759;-79
2022/02/27 07:25:14;;;;;;;18.10;9.80;;;;;;;1.51;80.34;102583.42;88805;1285;95041;-79
2022/02/27 07:27:20;;;;;;;15.90;9.30;;;;;;;1.57;80.40;102587.16;88805;1285;78667;-79
2022/02/27 07:29:25;;;;;;;17.70;10.20;;;;;;;1.60;80.52;102587.02;88781;1285;80961;-79
2022/02/27 07:31:30;;;;;;;16.50;9.70;;;;;;;1.66;80.47;102586.34;88759;1285;99064;-79
2022/02/27 07:33:36;;;;;;;18.60;11.60;;;;;;;1.68;80.39;102588.56;88791;1285;87693;-79
2022/02/27 07:35:42;;;;;;;15.80;10.80;;;;;;;1.65;80.48;102590.49;88773;1285;93492;-65
2022/02/27 07:37:47;;;;;;;17.40;11.10;;;;;;;1.67;80.50;102585.61;88757;1285;78340;-65
2022/02/27 07:39:53;;;;;;;15.40;11.40;;;;;;;1.71;80.54;102588.08;88767;1285;82139;-65
2022/02/27 07:41:58;;;;;;;18.10;11.50;;;;;;;1.74;80.52;102593.23;88770;1285;99617;-65
2022/02/27 07:44:05;;;;;;;15.70;10.80;;;;;;;1.72;80.39;102590.84;88618;1287;88715;-66
2022/02/27 07:46:10;;;;;;;13.90;10.10;;;;;;;1.67;80.41;102588.10;88778;1285;94574;-65
2022/02/27 07:48:16;;;;;;;18.60;10.00;;;;;;;1.70;80.42;102589.55;88770;1285;77941;-66
2022/02/27 07:50:22;;;;;;;16.20;11.40;;;;;;;1.71;80.26;102589.48;88761;1285;80033;-66
2022/02/27 07:52:27;;;;;;;20.20;13.00;;;;;;;1.69;80.29;102592.25;88777;1284;98625;-65
2022/02/27 07:54:33;;;;;;;21.60;12.80;;;;;;;1.68;80.22;102593.34;88778;1285;88337;-66
2022/02/27 07:56:38;;;;;;;16.60;9.90;;;;;;;1.66;80.26;102595.07;88739;1284;93948;-72
2022/02/27 07:58:44;;;;;;;17.10;11.10;;;;;;;1.67;80.32;102597.52;88765;1285;79773;-74
2022/02/27 08:00:49;;;;;;;18.30;10.30;;;;;;;1.68;80.34;102595.67;88784;1285;82904;-73
2022/02/27 08:02:55;;;;;;;17.30;11.70;;;;;;;1.77;80.35;102595.04;88791;1285;100467;-74
2022/02/27 08:05:01;;;;;;;16.80;11.10;;;;;;;1.84;80.34;102598.06;88790;1285;88791;-71
2022/02/27 08:07:07;;;;;;;23.00;13.70;;;;;;;1.83;80.27;102593.83;88812;1285;94493;-78
2022/02/27 08:09:19;;;;;;;19.40;10.60;;;;;;;1.90;80.33;102592.77;88810;1285;79746;-78
2022/02/27 08:11:28;;;;;;;22.20;11.80;;;;;;;1.90;80.21;102592.20;88639;1287;84284;-71
2022/02/27 08:13:33;;;;;;;16.90;12.80;;;;;;;1.93;80.42;102590.66;88807;1285;99443;-66
2022/02/27 08:15:39;;;;;;;18.30;10.60;;;;;;;2.01;80.21;102589.14;88825;1285;88182;-67
2022/02/27 08:17:45;;;;;;;24.50;17.10;;;;;;;2.12;80.19;102589.07;88786;1285;93383;-67
2022/02/27 08:19:51;;;;;;;18.30;11.10;;;;;;;2.14;80.27;102589.33;88789;1285;78463;-67
2022/02/27 08:21:56;;;;;;;23.00;13.90;;;;;;;2.16;80.25;102585.11;88817;1285;82554;-79
2022/02/27 08:24:07;;;;;;;27.60;17.40;;;;;;;2.17;80.19;102586.13;88817;1285;99791;-80
2022/02/27 08:26:17;;;;;;;22.60;12.80;;;;;;;2.15;80.28;102583.38;88807;1285;87718;-79
2022/02/27 08:28:23;;;;;;;18.60;10.40;;;;;;;2.23;80.06;102586.35;88780;1285;93891;-80
2022/02/27 08:30:29;;;;;;;17.60;12.30;;;;;;;2.22;79.99;102587.64;88586;1287;77192;-67
2022/02/27 08:32:36;;;;;;;20.50;14.30;;;;;;;2.23;80.01;102589.55;88809;1285;80578;-67
2022/02/27 08:34:41;;;;;;;21.30;13.70;;;;;;;2.19;79.95;102586.93;88788;1285;99288;-67
2022/02/27 08:36:50;;;;;;;20.60;12.90;;;;;;;2.16;79.98;102590.48;88805;1285;89504;-80
2022/02/27 08:38:59;;;;;;;22.00;13.30;;;;;;;2.25;79.90;102585.50;88790;1285;94937;-81
2022/02/27 08:41:08;;;;;;;17.20;11.50;;;;;;;2.32;79.64;102585.28;88816;1285;81753;-80
2022/02/27 08:43:17;;;;;;;23.20;13.90;;;;;;;2.34;79.72;102585.23;88825;1285;80474;-81
2022/02/27 08:45:24;;;;;;;20.70;12.80;;;;;;;2.37;79.71;102579.36;88821;1285;100787;-80
2022/02/27 08:47:30;;;;;;;17.60;11.80;;;;;;;2.47;79.46;102578.44;88801;1285;89341;-79
2022/02/27 08:49:39;;;;;;;16.30;10.90;;;;;;;2.51;79.61;102573.46;88830;1285;94694;-76
2022/02/27 08:51:49;;;;;;;19.70;13.00;;;;;;;2.60;79.57;102575.25;88802;1285;79385;-80
2022/02/27 08:53:55;;;;;;;20.50;13.40;;;;;;;2.67;79.68;102577.00;88845;1285;81566;-80
2022/02/27 08:56:05;;;;;;;18.00;12.20;;;;;;;2.65;79.44;102576.02;88830;1284;99149;-79
2022/02/27 08:58:14;;;;;;;17.20;11.70;;;;;;;2.62;79.48;102577.06;88819;1285;89557;-79
2022/02/27 09:00:20;;;;;;;18.20;10.90;;;;;;;2.68;79.24;102579.95;88802;1285;94217;-81
2022/02/27 09:02:26;;;;;;;18.30;12.30;;;;;;;2.68;79.01;102579.94;88805;1285;76480;-80
2022/02/27 09:04:34;;;;;;;16.40;11.30;;;;;;;2.67;78.86;102586.05;88732;1287;82300;-80
2022/02/27 09:06:40;;;;;;;19.40;13.50;;;;;;;2.65;78.86;102585.79;88807;1285;100657;-79
2022/02/27 09:08:46;;;;;;;18.20;13.00;;;;;;;2.57;79.01;102582.15;88813;1285;88317;-79
2022/02/27 09:10:54;;;;;;;20.40;13.40;;;;;;;2.46;79.10;102585.81;88789;1285;95563;-78
2022/02/27 09:13:02;;;;;;;21.90;15.10;;;;;;;2.39;79.12;102591.18;88751;1285;81285;-80
2022/02/27 09:15:10;;;;;;;20.10;13.10;;;;;;;2.34;78.98;102588.41;88678;1287;81828;-68
2022/02/27 09:17:16;;;;;;;21.00;14.30;;;;;;;2.39;78.94;102591.70;88774;1285;99362;-69
2022/02/27 09:19:22;;;;;;;21.70;12.40;;;;;;;2.44;78.94;102588.08;88784;1285;86299;-68
2022/02/27 09:21:28;;;;;;;20.60;12.60;;;;;;;2.50;78.91;102584.52;88781;1285;95436;-80
2022/02/27 09:23:34;;;;;;;22.30;16.70;;;;;;;2.56;78.84;102585.96;88742;1285;80437;-79
2022/02/27 09:25:40;;;;;;;19.20;12.30;;;;;;;2.56;78.88;102584.51;88780;1285;82506;-78
2022/02/27 09:27:46;;;;;;;20.30;12.10;;;;;;;2.68;78.89;102587.79;88767;1285;100181;-79
2022/02/27 09:29:55;;;;;;;22.50;14.90;;;;;;;2.78;78.62;102593.06;88769;1285;89215;-78
2022/02/27 09:32:05;;;;;;;26.00;16.80;;;;;;;2.77;78.70;102592.05;88766;1285;95501;-75
2022/02/27 09:34:13;;;;;;;23.50;15.70;;;;;;;2.77;78.72;102592.77;88759;1285;77283;-75
2022/02/27 09:36:26;;;;;;;22.10;14.70;;;;;;;2.72;78.62;102590.39;88800;1285;83467;-77
2022/02/27 09:38:32;;;;;;;24.90;18.90;;;;;;;2.67;78.53;102587.31;88781;1285;100558;-78
2022/02/27 09:40:42;;;;;;;20.80;15.10;;;;;;;2.63;78.38;102584.47;88791;1285;89350;-68
2022/02/27 09:42:52;;;;;;;21.80;15.60;;;;;;;2.61;78.25;102587.13;88777;1285;94180;-67
2022/02/27 09:44:59;;;;;;;20.00;13.00;;;;;;;2.62;78.29;102588.13;88764;1284;78890;-78